createdAt,value
2023-03-28T00:04:06.509Z,1.10
2023-03-28T00:09:11.316Z,0.80
2023-03-28T00:14:16.859Z,0.90
2023-03-28T00:19:23.084Z,1.00
2023-03-28T00:24:27.097Z,0.70
2023-03-28T00:29:31.953Z,0.80
2023-03-28T00:34:35.545Z,1.10
2023-03-28T00:39:40.379Z,1.40
2023-03-28T00:44:48.610Z,1.23
2023-03-28T00:49:53.870Z,0.77
2023-03-28T00:54:59.108Z,1.70
2023-03-28T01:00:07.658Z,1.40
2023-03-28T01:05:13.273Z,1.20
2023-03-28T01:15:21.322Z,1.25
2023-03-28T01:20:52.262Z,0.90
2023-03-28T01:26:28.643Z,1.00
2023-03-28T01:32:04.748Z,0.85
2023-03-28T01:37:38.115Z,1.48
2023-03-28T01:42:58.271Z,1.05
2023-03-28T01:48:08.105Z,1.45
2023-03-28T01:53:21.266Z,1.15
2023-03-28T01:58:31.254Z,2.17
2023-03-28T02:03:42.270Z,1.15
2023-03-28T02:08:56.000Z,1.27
2023-03-28T02:19:15.638Z,1.05
2023-03-28T02:24:35.142Z,2.25
2023-03-28T02:29:49.528Z,1.35
2023-03-28T02:34:56.871Z,1.20
2023-03-28T02:40:09.924Z,1.60
2023-03-28T02:45:29.738Z,1.48
2023-03-28T02:50:38.360Z,1.25
2023-03-28T02:55:51.627Z,1.00
2023-03-28T03:01:15.378Z,1.77
2023-03-28T03:06:19.506Z,1.80
2023-03-28T03:11:25.078Z,1.80
2023-03-28T03:26:38.923Z,1.98
2023-03-28T03:31:42.777Z,1.88
2023-03-28T03:37:17.827Z,1.75
2023-03-28T03:42:22.776Z,1.42
2023-03-28T03:47:26.582Z,2.00
2023-03-28T03:52:29.994Z,2.10
2023-03-28T03:57:34.835Z,1.83
2023-03-28T04:02:40.660Z,1.50
2023-03-28T04:07:44.224Z,1.48
2023-03-28T04:12:59.389Z,1.85
2023-03-28T04:18:06.932Z,2.53
2023-03-28T04:23:20.459Z,1.75
2023-03-28T04:28:27.821Z,2.25
2023-03-28T04:33:35.329Z,1.55
2023-03-28T04:38:42.080Z,1.88
2023-03-28T04:44:03.012Z,1.60
2023-03-28T04:49:10.824Z,2.40
2023-03-28T04:54:14.049Z,2.55
2023-03-28T04:59:24.507Z,2.40
2023-03-28T05:04:29.571Z,2.95
2023-03-28T05:09:33.946Z,2.58
2023-03-28T05:14:40.614Z,2.42
2023-03-28T05:19:50.520Z,2.22
2023-03-28T05:24:57.884Z,2.70
2023-03-28T05:30:02.836Z,2.40
2023-03-28T05:35:10.137Z,2.90
2023-03-28T05:40:15.521Z,3.72
2023-03-28T05:45:21.962Z,2.65
2023-03-28T05:50:33.521Z,2.47
2023-03-28T05:55:42.846Z,3.80
2023-03-28T06:00:48.750Z,3.65
2023-03-28T06:05:52.339Z,3.72
2023-03-28T06:11:03.046Z,3.85
2023-03-28T06:16:30.451Z,3.60
2023-03-28T06:21:36.106Z,3.53
2023-03-28T06:26:43.441Z,4.32
2023-03-28T06:31:52.492Z,3.55
2023-03-28T06:36:55.846Z,3.13
2023-03-28T06:42:03.418Z,3.58
2023-03-28T06:47:17.021Z,3.05
2023-03-28T06:52:22.718Z,3.60
2023-03-28T06:57:27.850Z,3.00
2023-03-28T07:02:44.487Z,2.83
2023-03-28T07:12:51.518Z,2.45
2023-03-28T07:17:57.089Z,2.40
2023-03-28T07:23:00.578Z,2.38
2023-03-28T07:28:05.950Z,3.10
2023-03-28T07:33:17.145Z,2.38
2023-03-28T07:38:25.613Z,2.30
2023-03-28T07:43:31.963Z,2.38
2023-03-28T07:48:37.087Z,2.42
2023-03-28T07:53:40.613Z,2.50
2023-03-28T07:58:43.819Z,2.40
2023-03-28T08:03:49.341Z,1.70
2023-03-28T08:08:53.054Z,1.88
2023-03-28T08:14:09.358Z,2.53
2023-03-28T08:19:15.717Z,1.60
2023-03-28T08:24:37.594Z,1.75
2023-03-28T08:29:48.177Z,1.30
2023-03-28T08:34:52.888Z,1.58
2023-03-28T08:39:59.046Z,1.33
2023-03-28T08:45:21.334Z,1.50
2023-03-28T08:50:32.810Z,1.60
2023-03-28T08:55:40.192Z,1.88
2023-03-28T09:00:43.974Z,1.58
2023-03-28T09:05:52.688Z,1.42
2023-03-28T09:11:04.239Z,1.55
2023-03-28T09:16:25.590Z,1.50
2023-03-28T09:22:12.523Z,1.55
2023-03-28T09:27:25.817Z,1.42
2023-03-28T09:32:34.985Z,2.05
2023-03-28T09:37:42.329Z,1.65
2023-03-28T09:42:57.946Z,1.52
2023-03-28T09:48:19.838Z,2.00
2023-03-28T09:53:27.874Z,1.77
2023-03-28T09:58:47.574Z,1.27
2023-03-28T10:03:57.818Z,1.15
2023-03-28T10:09:24.932Z,1.63
2023-03-28T10:14:37.638Z,1.70
2023-03-28T10:19:48.028Z,1.92
2023-03-28T10:24:59.672Z,1.50
2023-03-28T10:30:23.510Z,1.75
2023-03-28T10:35:31.042Z,1.50
2023-03-28T10:40:53.540Z,1.33
2023-03-28T10:46:25.441Z,1.90
2023-03-28T10:51:50.378Z,1.67
2023-03-28T10:56:58.505Z,1.63
2023-03-28T11:02:43.428Z,1.83
2023-03-28T11:08:01.120Z,1.48
2023-03-28T11:13:28.357Z,2.60
2023-03-28T11:18:46.391Z,1.90
2023-03-28T11:24:06.240Z,1.90
2023-03-28T11:29:40.191Z,1.90
2023-03-28T11:34:59.321Z,1.50
2023-03-28T11:40:11.676Z,1.10
2023-03-28T11:45:42.513Z,1.75
2023-03-28T11:51:02.780Z,1.75
2023-03-28T11:56:30.389Z,2.17
2023-03-28T12:01:57.681Z,1.42
2023-03-28T12:07:11.311Z,1.63
2023-03-28T12:12:25.985Z,1.52
2023-03-28T12:17:34.971Z,1.80
2023-03-28T12:22:44.027Z,2.00
2023-03-28T12:28:01.918Z,1.30
2023-03-28T12:33:20.263Z,1.33
2023-03-28T12:38:49.322Z,1.67
2023-03-28T12:44:14.900Z,1.58
2023-03-28T12:49:34.849Z,1.63
2023-03-28T12:54:58.879Z,3.38
2023-03-28T13:00:21.075Z,1.93
2023-03-28T13:06:00.145Z,1.88
2023-03-28T13:11:09.785Z,1.85
2023-03-28T13:16:17.251Z,2.05
2023-03-28T13:21:44.064Z,2.15
2023-03-28T13:26:56.105Z,2.05
2023-03-28T13:32:06.756Z,1.88
2023-03-28T13:37:23.145Z,1.52
2023-03-28T13:42:29.644Z,1.40
2023-03-28T13:47:36.921Z,1.30
2023-03-28T13:52:41.492Z,1.77
2023-03-28T13:57:45.744Z,1.63
2023-03-28T14:02:51.117Z,1.13
2023-03-28T14:08:02.345Z,1.50
2023-03-28T14:13:08.242Z,2.30
2023-03-28T14:18:17.785Z,1.63
2023-03-28T14:23:30.791Z,1.35
2023-03-28T14:28:34.661Z,1.63
2023-03-28T14:33:38.399Z,1.65
2023-03-28T14:38:43.008Z,2.10
2023-03-28T14:43:52.099Z,1.48
2023-03-28T14:48:57.585Z,1.17
2023-03-28T14:54:05.076Z,1.35
2023-03-28T14:59:10.893Z,1.52
2023-03-28T15:04:16.036Z,1.52
2023-03-28T15:09:28.067Z,1.25
2023-03-28T15:14:37.313Z,1.10
2023-03-28T15:19:42.503Z,1.58
2023-03-28T15:24:47.668Z,1.25
2023-03-28T15:29:52.190Z,1.30
2023-03-28T15:34:59.074Z,1.10
2023-03-28T15:40:26.659Z,2.00
2023-03-28T15:45:41.135Z,1.83
2023-03-28T15:50:51.380Z,1.30
2023-03-28T15:55:59.124Z,1.70
2023-03-28T16:01:22.209Z,1.75
2023-03-28T16:06:32.459Z,1.63
2023-03-28T16:11:39.618Z,1.33
2023-03-28T16:16:56.727Z,1.67
2023-03-28T16:22:09.867Z,1.20
2023-03-28T16:27:14.645Z,1.00
2023-03-28T16:32:18.352Z,0.93
2023-03-28T16:37:22.235Z,1.38
2023-03-28T16:42:28.149Z,1.40
2023-03-28T16:47:32.035Z,1.00
2023-03-28T16:52:38.860Z,1.10
2023-03-28T16:57:44.542Z,1.67
2023-03-28T17:02:49.371Z,1.55
2023-03-28T17:07:52.853Z,4.05
2023-03-28T17:13:02.369Z,2.00
2023-03-28T17:18:06.614Z,2.22
2023-03-28T17:23:10.827Z,1.50
2023-03-28T17:28:15.877Z,2.00
2023-03-28T17:33:19.722Z,1.83
2023-03-28T17:38:23.048Z,2.55
2023-03-28T17:43:27.601Z,3.53
2023-03-28T17:48:30.993Z,3.45
2023-03-28T17:53:34.263Z,2.00
2023-03-28T17:58:39.341Z,2.13
2023-03-28T18:03:44.117Z,2.53
2023-03-28T18:09:06.068Z,2.47
2023-03-28T18:14:11.248Z,2.10
2023-03-28T18:19:18.294Z,2.90
2023-03-28T18:24:22.591Z,2.40
2023-03-28T18:29:27.197Z,2.70
2023-03-28T18:34:30.788Z,3.30
2023-03-28T18:39:35.791Z,3.17
2023-03-28T18:44:40.934Z,2.97
2023-03-28T18:49:44.158Z,2.30
2023-03-28T18:54:48.077Z,2.75
2023-03-28T18:59:55.552Z,3.13
2023-03-28T19:04:58.904Z,2.50
2023-03-28T19:10:02.415Z,2.75
2023-03-28T19:15:10.538Z,2.45
2023-03-28T19:20:14.164Z,2.58
2023-03-28T19:25:17.904Z,3.28
2023-03-28T19:30:23.406Z,3.10
2023-03-28T19:35:27.522Z,3.00
2023-03-28T19:40:31.219Z,3.03
2023-03-28T19:45:35.830Z,3.08
2023-03-28T19:50:39.450Z,2.60
2023-03-28T19:55:42.619Z,2.63
2023-03-28T20:00:47.563Z,2.10
2023-03-28T20:05:50.816Z,2.53
2023-03-28T20:10:54.179Z,1.77
2023-03-28T20:16:02.391Z,2.00
2023-03-28T20:21:08.944Z,2.38
2023-03-28T20:26:19.495Z,1.48
2023-03-28T20:31:24.133Z,2.17
2023-03-28T20:36:27.368Z,1.63
2023-03-28T20:41:30.586Z,1.65
2023-03-28T20:46:38.204Z,1.83
2023-03-28T20:51:41.443Z,2.03
2023-03-28T20:56:44.625Z,2.00
2023-03-28T21:01:49.493Z,2.33
2023-03-28T21:06:52.654Z,2.03
2023-03-28T21:11:55.880Z,2.95
2023-03-28T21:17:00.478Z,2.42
2023-03-28T21:22:03.672Z,2.38
2023-03-28T21:27:06.841Z,2.10
2023-03-28T21:32:11.702Z,2.22
2023-03-28T21:37:15.184Z,2.13
2023-03-28T21:42:18.577Z,1.95
2023-03-28T21:47:23.100Z,2.22
2023-03-28T21:52:26.235Z,2.15
2023-03-28T21:57:29.382Z,2.22
2023-03-28T22:02:34.364Z,2.35
2023-03-28T22:07:37.917Z,3.13
2023-03-28T22:12:44.874Z,1.95
2023-03-28T22:17:49.454Z,2.25
2023-03-28T22:22:53.200Z,2.47
2023-03-28T22:27:59.474Z,2.20
2023-03-28T22:33:04.963Z,2.10
2023-03-28T22:43:11.969Z,2.10
2023-03-28T22:48:16.499Z,2.45
2023-03-28T22:53:23.619Z,2.63
2023-03-28T22:58:27.296Z,2.70
2023-03-28T23:03:32.500Z,2.70
2023-03-28T23:08:36.035Z,2.67
2023-03-28T23:13:39.553Z,2.85
2023-03-28T23:18:44.307Z,3.20
2023-03-28T23:23:47.620Z,3.37
2023-03-28T23:28:50.841Z,2.95
2023-03-28T23:33:55.334Z,2.78
2023-03-28T23:38:58.466Z,3.08
2023-03-28T23:44:01.861Z,3.42
2023-03-28T23:49:06.911Z,2.92
2023-03-28T23:54:10.064Z,2.95
2023-03-28T23:59:13.289Z,2.67
